sensor_id;sensor_type;location;lat;lon;timestamp;pressure;altitude;pressure_sealevel;temperature;humidity
64698;BME280;51124;53.394;-6.294;2022-07-23T00:01:11;100993.50;;;25.49;9.81
64698;BME280;51124;53.394;-6.294;2022-07-23T00:03:45;100992.35;;;25.93;9.58
64698;BME280;51124;53.394;-6.294;2022-07-23T00:06:20;100986.75;;;26.53;9.74
64698;BME280;51124;53.394;-6.294;2022-07-23T00:08:54;100986.87;;;25.90;9.79
64698;BME280;51124;53.394;-6.294;2022-07-23T00:11:28;100987.53;;;26.08;9.85
64698;BME280;51124;53.394;-6.294;2022-07-23T00:14:02;100982.81;;;25.61;9.84
64698;BME280;51124;53.394;-6.294;2022-07-23T00:16:36;100976.70;;;25.82;9.88
64698;BME280;51124;53.394;-6.294;2022-07-23T00:19:10;100973.71;;;26.02;9.67
64698;BME280;51124;53.394;-6.294;2022-07-23T00:21:43;100973.89;;;26.23;9.76
64698;BME280;51124;53.394;-6.294;2022-07-23T00:24:17;100977.76;;;25.66;9.91
64698;BME280;51124;53.394;-6.294;2022-07-23T00:26:51;100981.64;;;25.57;9.94
64698;BME280;51124;53.394;-6.294;2022-07-23T00:29:25;100981.90;;;25.53;10.09
64698;BME280;51124;53.394;-6.294;2022-07-23T00:31:59;100979.78;;;25.50;9.92
64698;BME280;51124;53.394;-6.294;2022-07-23T00:34:33;100976.13;;;25.84;9.88
64698;BME280;51124;53.394;-6.294;2022-07-23T00:37:08;100975.21;;;25.38;10.12
64698;BME280;51124;53.394;-6.294;2022-07-23T00:39:41;100972.45;;;25.62;9.74
64698;BME280;51124;53.394;-6.294;2022-07-23T00:42:16;100974.58;;;25.76;9.89
64698;BME280;51124;53.394;-6.294;2022-07-23T00:44:50;100976.77;;;25.74;10.01
64698;BME280;51124;53.394;-6.294;2022-07-23T00:47:24;100973.18;;;25.45;10.10
64698;BME280;51124;53.394;-6.294;2022-07-23T00:49:58;100971.51;;;25.43;10.07
64698;BME280;51124;53.394;-6.294;2022-07-23T00:52:33;100968.89;;;25.42;10.00
64698;BME280;51124;53.394;-6.294;2022-07-23T00:54:57;100964.48;;;25.29;10.10
64698;BME280;51124;53.394;-6.294;2022-07-23T00:57:32;100967.20;;;24.86;10.01
64698;BME280;51124;53.394;-6.294;2022-07-23T01:00:09;100962.01;;;25.91;9.89
64698;BME280;51124;53.394;-6.294;2022-07-23T01:02:33;100964.18;;;24.99;10.12
64698;BME280;51124;53.394;-6.294;2022-07-23T01:05:08;100961.43;;;24.66;10.27
64698;BME280;51124;53.394;-6.294;2022-07-23T01:07:42;100955.60;;;24.24;10.24
64698;BME280;51124;53.394;-6.294;2022-07-23T01:10:17;100949.05;;;24.60;10.46
64698;BME280;51124;53.394;-6.294;2022-07-23T01:12:51;100945.11;;;25.03;10.19
64698;BME280;51124;53.394;-6.294;2022-07-23T01:15:25;100942.06;;;24.76;10.27
64698;BME280;51124;53.394;-6.294;2022-07-23T01:17:59;100936.16;;;25.41;10.10
64698;BME280;51124;53.394;-6.294;2022-07-23T01:20:35;100933.54;;;25.47;10.12
64698;BME280;51124;53.394;-6.294;2022-07-23T01:22:59;100933.66;;;25.65;10.07
64698;BME280;51124;53.394;-6.294;2022-07-23T01:25:34;100931.42;;;24.81;10.24
64698;BME280;51124;53.394;-6.294;2022-07-23T01:28:08;100928.52;;;25.13;10.28
64698;BME280;51124;53.394;-6.294;2022-07-23T01:30:42;100925.04;;;24.70;10.39
64698;BME280;51124;53.394;-6.294;2022-07-23T01:33:16;100925.65;;;24.94;10.27
64698;BME280;51124;53.394;-6.294;2022-07-23T01:35:50;100922.75;;;25.01;10.35
64698;BME280;51124;53.394;-6.294;2022-07-23T01:38:25;100918.50;;;25.47;10.10
64698;BME280;51124;53.394;-6.294;2022-07-23T01:40:58;100916.60;;;24.76;10.26
64698;BME280;51124;53.394;-6.294;2022-07-23T01:43:32;100909.88;;;25.22;10.09
64698;BME280;51124;53.394;-6.294;2022-07-23T01:46:07;100906.65;;;25.03;10.19
64698;BME280;51124;53.394;-6.294;2022-07-23T01:48:41;100909.49;;;24.78;10.38
64698;BME280;51124;53.394;-6.294;2022-07-23T01:51:15;100907.40;;;25.57;10.08
64698;BME280;51124;53.394;-6.294;2022-07-23T01:53:49;100901.08;;;25.23;9.95
64698;BME280;51124;53.394;-6.294;2022-07-23T01:56:23;100898.36;;;25.20;10.12
64698;BME280;51124;53.394;-6.294;2022-07-23T01:58:57;100896.68;;;25.17;10.09
64698;BME280;51124;53.394;-6.294;2022-07-23T02:01:31;100896.34;;;25.05;10.23
64698;BME280;51124;53.394;-6.294;2022-07-23T02:04:05;100895.85;;;23.91;10.62
64698;BME280;51124;53.394;-6.294;2022-07-23T02:06:39;100886.78;;;25.62;10.00
64698;BME280;51124;53.394;-6.294;2022-07-23T02:09:12;100880.21;;;25.11;10.24
64698;BME280;51124;53.394;-6.294;2022-07-23T02:11:47;100880.95;;;24.93;10.08
64698;BME280;51124;53.394;-6.294;2022-07-23T02:14:21;100881.18;;;24.59;10.49
64698;BME280;51124;53.394;-6.294;2022-07-23T02:16:55;100876.92;;;25.00;10.41
64698;BME280;51124;53.394;-6.294;2022-07-23T02:19:29;100874.05;;;24.46;10.41
64698;BME280;51124;53.394;-6.294;2022-07-23T02:22:03;100870.30;;;25.05;10.32
64698;BME280;51124;53.394;-6.294;2022-07-23T02:24:37;100867.21;;;25.07;10.11
64698;BME280;51124;53.394;-6.294;2022-07-23T02:27:11;100862.56;;;24.50;10.46
64698;BME280;51124;53.394;-6.294;2022-07-23T02:29:45;100859.97;;;25.39;10.16
64698;BME280;51124;53.394;-6.294;2022-07-23T02:32:19;100852.26;;;25.33;10.25
64698;BME280;51124;53.394;-6.294;2022-07-23T02:34:53;100848.70;;;24.63;10.29
64698;BME280;51124;53.394;-6.294;2022-07-23T02:37:28;100846.06;;;25.95;10.05
64698;BME280;51124;53.394;-6.294;2022-07-23T02:40:02;100843.99;;;24.47;10.23
64698;BME280;51124;53.394;-6.294;2022-07-23T02:42:36;100844.22;;;25.00;10.35
64698;BME280;51124;53.394;-6.294;2022-07-23T02:45:10;100847.29;;;24.51;10.37
64698;BME280;51124;53.394;-6.294;2022-07-23T02:47:44;100846.74;;;23.97;10.63
64698;BME280;51124;53.394;-6.294;2022-07-23T02:50:19;100844.63;;;24.12;10.63
64698;BME280;51124;53.394;-6.294;2022-07-23T02:52:53;100838.05;;;25.02;10.26
64698;BME280;51124;53.394;-6.294;2022-07-23T02:55:27;100833.20;;;25.26;10.07
64698;BME280;51124;53.394;-6.294;2022-07-23T02:58:01;100831.20;;;25.46;10.18
64698;BME280;51124;53.394;-6.294;2022-07-23T03:00:35;100827.39;;;24.54;10.47
64698;BME280;51124;53.394;-6.294;2022-07-23T03:03:09;100823.81;;;24.76;10.51
64698;BME280;51124;53.394;-6.294;2022-07-23T03:05:43;100818.70;;;23.77;10.69
64698;BME280;51124;53.394;-6.294;2022-07-23T03:08:17;100823.48;;;25.37;10.23
64698;BME280;51124;53.394;-6.294;2022-07-23T03:10:51;100818.48;;;25.75;10.11
64698;BME280;51124;53.394;-6.294;2022-07-23T03:13:25;100814.00;;;24.54;10.14
64698;BME280;51124;53.394;-6.294;2022-07-23T03:15:59;100814.06;;;24.78;10.27
64698;BME280;51124;53.394;-6.294;2022-07-23T03:18:33;100818.16;;;25.26;10.15
64698;BME280;51124;53.394;-6.294;2022-07-23T03:21:08;100812.89;;;25.08;10.37
64698;BME280;51124;53.394;-6.294;2022-07-23T03:23:41;100812.46;;;24.39;10.31
64698;BME280;51124;53.394;-6.294;2022-07-23T03:26:16;100812.81;;;24.53;10.42
64698;BME280;51124;53.394;-6.294;2022-07-23T03:28:50;100806.98;;;25.39;10.20
64698;BME280;51124;53.394;-6.294;2022-07-23T03:31:24;100804.71;;;24.80;10.52
64698;BME280;51124;53.394;-6.294;2022-07-23T03:33:58;100802.31;;;24.72;10.47
64698;BME280;51124;53.394;-6.294;2022-07-23T03:36:32;100795.16;;;24.68;10.43
64698;BME280;51124;53.394;-6.294;2022-07-23T03:39:06;100787.98;;;25.74;10.00
64698;BME280;51124;53.394;-6.294;2022-07-23T03:41:40;100783.75;;;25.37;10.15
64698;BME280;51124;53.394;-6.294;2022-07-23T03:44:14;100780.55;;;25.35;10.17
64698;BME280;51124;53.394;-6.294;2022-07-23T03:46:48;100774.82;;;25.83;10.11
64698;BME280;51124;53.394;-6.294;2022-07-23T03:49:22;100769.11;;;25.24;10.19
64698;BME280;51124;53.394;-6.294;2022-07-23T03:51:56;100763.71;;;26.03;9.97
64698;BME280;51124;53.394;-6.294;2022-07-23T03:54:30;100762.66;;;25.62;10.00
64698;BME280;51124;53.394;-6.294;2022-07-23T03:57:04;100763.88;;;25.51;10.04
64698;BME280;51124;53.394;-6.294;2022-07-23T03:59:38;100766.90;;;26.10;9.98
64698;BME280;51124;53.394;-6.294;2022-07-23T04:02:12;100761.49;;;25.62;9.99
64698;BME280;51124;53.394;-6.294;2022-07-23T04:04:47;100753.34;;;26.41;9.82
64698;BME280;51124;53.394;-6.294;2022-07-23T04:07:21;100746.23;;;25.40;10.18
64698;BME280;51124;53.394;-6.294;2022-07-23T04:09:55;100744.20;;;25.24;9.97
64698;BME280;51124;53.394;-6.294;2022-07-23T04:12:29;100745.47;;;24.88;10.31
64698;BME280;51124;53.394;-6.294;2022-07-23T04:15:03;100740.93;;;25.24;10.09
64698;BME280;51124;53.394;-6.294;2022-07-23T04:17:38;100739.65;;;25.57;10.09
64698;BME280;51124;53.394;-6.294;2022-07-23T04:20:12;100740.52;;;25.68;10.08
64698;BME280;51124;53.394;-6.294;2022-07-23T04:22:46;100734.41;;;25.94;9.98
64698;BME280;51124;53.394;-6.294;2022-07-23T04:25:20;100732.95;;;25.29;10.16
64698;BME280;51124;53.394;-6.294;2022-07-23T04:27:54;100730.30;;;25.19;10.26
64698;BME280;51124;53.394;-6.294;2022-07-23T04:30:28;100732.17;;;25.68;10.04
64698;BME280;51124;53.394;-6.294;2022-07-23T04:33:02;100734.15;;;24.99;10.19
64698;BME280;51124;53.394;-6.294;2022-07-23T04:35:36;100732.17;;;24.61;10.41
64698;BME280;51124;53.394;-6.294;2022-07-23T04:38:10;100730.71;;;25.16;10.17
64698;BME280;51124;53.394;-6.294;2022-07-23T04:40:44;100725.72;;;25.50;10.12
64698;BME280;51124;53.394;-6.294;2022-07-23T04:43:19;100722.01;;;25.31;10.36
64698;BME280;51124;53.394;-6.294;2022-07-23T04:45:53;100721.28;;;25.25;10.14
64698;BME280;51124;53.394;-6.294;2022-07-23T04:48:27;100718.81;;;26.03;9.95
64698;BME280;51124;53.394;-6.294;2022-07-23T04:51:01;100721.67;;;25.33;10.12
64698;BME280;51124;53.394;-6.294;2022-07-23T04:53:37;100720.74;;;25.54;10.18
64698;BME280;51124;53.394;-6.294;2022-07-23T04:56:00;100722.63;;;25.25;10.23
64698;BME280;51124;53.394;-6.294;2022-07-23T04:58:35;100723.19;;;25.77;10.06
64698;BME280;51124;53.394;-6.294;2022-07-23T05:01:09;100723.65;;;25.27;10.22
64698;BME280;51124;53.394;-6.294;2022-07-23T05:03:43;100726.97;;;25.15;10.01
64698;BME280;51124;53.394;-6.294;2022-07-23T05:06:17;100728.90;;;24.93;10.27
64698;BME280;51124;53.394;-6.294;2022-07-23T05:08:51;100725.37;;;25.63;10.01
64698;BME280;51124;53.394;-6.294;2022-07-23T05:11:25;100719.51;;;25.42;10.07
64698;BME280;51124;53.394;-6.294;2022-07-23T05:13:59;100719.24;;;25.39;10.17
64698;BME280;51124;53.394;-6.294;2022-07-23T05:16:32;100717.27;;;25.77;9.96
64698;BME280;51124;53.394;-6.294;2022-07-23T05:19:07;100717.22;;;25.86;10.17
64698;BME280;51124;53.394;-6.294;2022-07-23T05:21:41;100718.23;;;25.84;9.99
64698;BME280;51124;53.394;-6.294;2022-07-23T05:24:15;100720.48;;;25.20;10.21
64698;BME280;51124;53.394;-6.294;2022-07-23T05:26:49;100722.45;;;24.91;10.41
64698;BME280;51124;53.394;-6.294;2022-07-23T05:29:23;100718.34;;;24.60;10.48
64698;BME280;51124;53.394;-6.294;2022-07-23T05:31:57;100712.23;;;25.02;10.30
64698;BME280;51124;53.394;-6.294;2022-07-23T05:34:31;100707.23;;;25.11;10.25
64698;BME280;51124;53.394;-6.294;2022-07-23T05:37:05;100705.75;;;25.05;10.28
64698;BME280;51124;53.394;-6.294;2022-07-23T05:39:39;100700.47;;;25.52;10.30
64698;BME280;51124;53.394;-6.294;2022-07-23T05:42:13;100696.47;;;25.51;10.28
64698;BME280;51124;53.394;-6.294;2022-07-23T05:44:47;100693.60;;;25.81;10.01
64698;BME280;51124;53.394;-6.294;2022-07-23T05:47:21;100692.50;;;25.22;10.13
64698;BME280;51124;53.394;-6.294;2022-07-23T05:49:55;100690.20;;;25.40;10.24
64698;BME280;51124;53.394;-6.294;2022-07-23T05:52:29;100685.64;;;25.46;10.27
64698;BME280;51124;53.394;-6.294;2022-07-23T05:55:04;100677.19;;;25.29;10.10
64698;BME280;51124;53.394;-6.294;2022-07-23T05:57:39;100679.07;;;25.56;10.19
64698;BME280;51124;53.394;-6.294;2022-07-23T06:00:13;100679.72;;;25.32;10.16
64698;BME280;51124;53.394;-6.294;2022-07-23T06:02:47;100680.09;;;26.00;10.13
64698;BME280;51124;53.394;-6.294;2022-07-23T06:05:21;100682.30;;;25.12;10.35
64698;BME280;51124;53.394;-6.294;2022-07-23T06:07:56;100683.72;;;24.93;10.28
64698;BME280;51124;53.394;-6.294;2022-07-23T06:10:30;100676.47;;;25.24;10.26
64698;BME280;51124;53.394;-6.294;2022-07-23T06:13:04;100673.65;;;25.71;10.18
64698;BME280;51124;53.394;-6.294;2022-07-23T06:15:38;100674.54;;;25.02;10.40
64698;BME280;51124;53.394;-6.294;2022-07-23T06:18:12;100669.79;;;25.51;10.20
64698;BME280;51124;53.394;-6.294;2022-07-23T06:20:46;100666.53;;;26.39;9.97
64698;BME280;51124;53.394;-6.294;2022-07-23T06:23:21;100663.14;;;25.54;10.27
64698;BME280;51124;53.394;-6.294;2022-07-23T06:25:54;100660.60;;;25.86;10.29
64698;BME280;51124;53.394;-6.294;2022-07-23T06:28:29;100660.05;;;25.74;10.21
64698;BME280;51124;53.394;-6.294;2022-07-23T06:31:03;100661.82;;;24.38;10.60
64698;BME280;51124;53.394;-6.294;2022-07-23T06:33:37;100663.71;;;25.37;10.32
64698;BME280;51124;53.394;-6.294;2022-07-23T06:36:11;100658.93;;;24.56;10.50
64698;BME280;51124;53.394;-6.294;2022-07-23T06:38:45;100661.30;;;24.87;10.47
64698;BME280;51124;53.394;-6.294;2022-07-23T06:41:19;100661.10;;;24.53;10.64
64698;BME280;51124;53.394;-6.294;2022-07-23T06:43:53;100654.80;;;25.43;10.14
64698;BME280;51124;53.394;-6.294;2022-07-23T06:46:27;100649.91;;;25.92;10.08
64698;BME280;51124;53.394;-6.294;2022-07-23T06:49:02;100653.71;;;25.58;10.25
64698;BME280;51124;53.394;-6.294;2022-07-23T06:51:36;100647.83;;;25.66;10.11
64698;BME280;51124;53.394;-6.294;2022-07-23T06:54:10;100643.89;;;25.61;10.33
64698;BME280;51124;53.394;-6.294;2022-07-23T06:56:44;100644.49;;;25.89;10.18
64698;BME280;51124;53.394;-6.294;2022-07-23T06:59:18;100635.59;;;25.57;10.09
64698;BME280;51124;53.394;-6.294;2022-07-23T07:01:52;100636.65;;;25.34;10.17
64698;BME280;51124;53.394;-6.294;2022-07-23T07:04:27;100635.40;;;25.87;10.32
64698;BME280;51124;53.394;-6.294;2022-07-23T07:07:01;100637.33;;;25.34;10.14
64698;BME280;51124;53.394;-6.294;2022-07-23T07:09:35;100634.39;;;24.85;10.40
64698;BME280;51124;53.394;-6.294;2022-07-23T07:12:09;100629.23;;;25.01;10.46
64698;BME280;51124;53.394;-6.294;2022-07-23T07:14:43;100625.90;;;25.01;10.31
64698;BME280;51124;53.394;-6.294;2022-07-23T07:17:17;100626.07;;;25.93;10.10
64698;BME280;51124;53.394;-6.294;2022-07-23T07:19:51;100626.60;;;24.52;10.58
64698;BME280;51124;53.394;-6.294;2022-07-23T07:22:25;100619.11;;;24.78;10.56
64698;BME280;51124;53.394;-6.294;2022-07-23T07:25:00;100613.92;;;24.44;10.82
64698;BME280;51124;53.394;-6.294;2022-07-23T07:27:34;100609.09;;;24.82;10.71
64698;BME280;51124;53.394;-6.294;2022-07-23T07:30:10;100608.48;;;24.12;11.11
64698;BME280;51124;53.394;-6.294;2022-07-23T07:32:34;100604.62;;;23.77;11.12
64698;BME280;51124;53.394;-6.294;2022-07-23T07:35:09;100600.21;;;24.15;10.92
64698;BME280;51124;53.394;-6.294;2022-07-23T07:37:43;100596.69;;;23.96;10.89
64698;BME280;51124;53.394;-6.294;2022-07-23T07:40:17;100596.02;;;23.44;11.31
64698;BME280;51124;53.394;-6.294;2022-07-23T07:42:52;100597.21;;;23.87;11.32
64698;BME280;51124;53.394;-6.294;2022-07-23T07:45:17;100601.27;;;23.79;11.14
64698;BME280;51124;53.394;-6.294;2022-07-23T07:47:43;100598.12;;;23.31;11.26
64698;BME280;51124;53.394;-6.294;2022-07-23T07:50:17;100601.83;;;22.31;11.64
64698;BME280;51124;53.394;-6.294;2022-07-23T07:52:52;100592.97;;;24.32;11.06
64698;BME280;51124;53.394;-6.294;2022-07-23T07:55:26;100585.92;;;25.46;10.60
64698;BME280;51124;53.394;-6.294;2022-07-23T07:58:00;100579.07;;;24.99;10.79
64698;BME280;51124;53.394;-6.294;2022-07-23T08:00:34;100585.47;;;24.54;10.79
64698;BME280;51124;53.394;-6.294;2022-07-23T08:03:08;100581.84;;;23.87;11.23
64698;BME280;51124;53.394;-6.294;2022-07-23T08:05:43;100581.03;;;25.00;10.65
64698;BME280;51124;53.394;-6.294;2022-07-23T08:08:17;100575.89;;;25.87;10.90
64698;BME280;51124;53.394;-6.294;2022-07-23T08:10:51;100579.71;;;25.63;11.08
64698;BME280;51124;53.394;-6.294;2022-07-23T08:13:26;100577.74;;;25.51;11.63
64698;BME280;51124;53.394;-6.294;2022-07-23T08:16:00;100568.51;;;25.70;11.89
64698;BME280;51124;53.394;-6.294;2022-07-23T08:18:34;100561.26;;;24.76;12.37
64698;BME280;51124;53.394;-6.294;2022-07-23T08:21:09;100559.33;;;25.36;12.33
64698;BME280;51124;53.394;-6.294;2022-07-23T08:23:44;100561.20;;;24.90;12.33
64698;BME280;51124;53.394;-6.294;2022-07-23T08:26:18;100556.39;;;24.37;12.43
64698;BME280;51124;53.394;-6.294;2022-07-23T08:28:52;100551.51;;;25.76;11.90
64698;BME280;51124;53.394;-6.294;2022-07-23T08:31:26;100549.91;;;25.25;12.26
64698;BME280;51124;53.394;-6.294;2022-07-23T08:34:00;100548.13;;;26.15;11.97
64698;BME280;51124;53.394;-6.294;2022-07-23T08:36:34;100542.72;;;25.91;11.85
64698;BME280;51124;53.394;-6.294;2022-07-23T08:39:08;100539.33;;;25.55;11.99
64698;BME280;51124;53.394;-6.294;2022-07-23T08:41:42;100536.56;;;24.74;12.65
64698;BME280;51124;53.394;-6.294;2022-07-23T08:44:17;100536.06;;;25.01;12.70
64698;BME280;51124;53.394;-6.294;2022-07-23T08:46:51;100536.21;;;26.23;12.17
64698;BME280;51124;53.394;-6.294;2022-07-23T08:49:25;100535.83;;;25.59;12.43
64698;BME280;51124;53.394;-6.294;2022-07-23T08:52:00;100532.09;;;25.14;12.53
64698;BME280;51124;53.394;-6.294;2022-07-23T08:54:24;100525.23;;;25.41;12.34
64698;BME280;51124;53.394;-6.294;2022-07-23T08:56:59;100521.25;;;25.69;12.61
64698;BME280;51124;53.394;-6.294;2022-07-23T08:59:33;100521.96;;;25.60;12.40
64698;BME280;51124;53.394;-6.294;2022-07-23T09:02:07;100524.95;;;24.27;12.68
64698;BME280;51124;53.394;-6.294;2022-07-23T09:04:43;100513.78;;;25.40;12.90
64698;BME280;51124;53.394;-6.294;2022-07-23T09:07:07;100512.42;;;26.24;12.47
64698;BME280;51124;53.394;-6.294;2022-07-23T09:09:41;100511.17;;;23.98;13.44
64698;BME280;51124;53.394;-6.294;2022-07-23T09:12:15;100514.14;;;25.02;13.66
64698;BME280;51124;53.394;-6.294;2022-07-23T09:14:50;100514.39;;;24.07;13.60
64698;BME280;51124;53.394;-6.294;2022-07-23T09:17:24;100506.56;;;24.41;13.35
64698;BME280;51124;53.394;-6.294;2022-07-23T09:20:08;100505.82;;;24.86;13.47
64698;BME280;51124;53.394;-6.294;2022-07-23T09:22:32;100505.70;;;24.59;13.55
64698;BME280;51124;53.394;-6.294;2022-07-23T09:25:09;100505.36;;;24.63;13.45
64698;BME280;51124;53.394;-6.294;2022-07-23T09:28:05;100502.52;;;24.70;13.25
64698;BME280;51124;53.394;-6.294;2022-07-23T09:29:59;100503.27;;;25.16;13.45
64698;BME280;51124;53.394;-6.294;2022-07-23T09:32:33;100498.53;;;25.00;13.60
64698;BME280;51124;53.394;-6.294;2022-07-23T09:35:07;100498.79;;;25.01;13.71
64698;BME280;51124;53.394;-6.294;2022-07-23T09:37:41;100501.08;;;25.24;13.66
64698;BME280;51124;53.394;-6.294;2022-07-23T09:40:14;100493.10;;;24.69;13.57
64698;BME280;51124;53.394;-6.294;2022-07-23T09:42:55;100495.58;;;24.90;13.84
64698;BME280;51124;53.394;-6.294;2022-07-23T09:45:19;100488.99;;;24.87;13.81
64698;BME280;51124;53.394;-6.294;2022-07-23T09:48:09;100483.12;;;24.20;14.10
64698;BME280;51124;53.394;-6.294;2022-07-23T09:50:23;100479.62;;;24.06;14.06
64698;BME280;51124;53.394;-6.294;2022-07-23T09:52:57;100471.51;;;24.53;13.84
64698;BME280;51124;53.394;-6.294;2022-07-23T09:55:32;100474.22;;;24.99;13.69
64698;BME280;51124;53.394;-6.294;2022-07-23T09:57:57;100473.86;;;24.72;13.67
64698;BME280;51124;53.394;-6.294;2022-07-23T10:00:31;100464.05;;;24.96;13.67
64698;BME280;51124;53.394;-6.294;2022-07-23T10:03:07;100464.18;;;24.37;13.89
64698;BME280;51124;53.394;-6.294;2022-07-23T10:05:33;100460.97;;;24.82;13.68
64698;BME280;51124;53.394;-6.294;2022-07-23T10:08:08;100457.53;;;25.87;13.01
64698;BME280;51124;53.394;-6.294;2022-07-23T10:10:34;100459.27;;;24.47;13.69
64698;BME280;51124;53.394;-6.294;2022-07-23T10:13:09;100456.60;;;25.81;12.85
64698;BME280;51124;53.394;-6.294;2022-07-23T10:15:43;100450.14;;;25.71;12.99
64698;BME280;51124;53.394;-6.294;2022-07-23T10:18:18;100450.85;;;25.93;12.62
64698;BME280;51124;53.394;-6.294;2022-07-23T10:20:53;100452.31;;;26.24;12.55
64698;BME280;51124;53.394;-6.294;2022-07-23T10:23:34;100451.76;;;26.53;12.23
64698;BME280;51124;53.394;-6.294;2022-07-23T10:26:05;100450.62;;;26.05;12.29
64698;BME280;51124;53.394;-6.294;2022-07-23T10:28:48;100442.35;;;25.66;12.38
64698;BME280;51124;53.394;-6.294;2022-07-23T10:31:08;100437.63;;;25.98;12.25
64698;BME280;51124;53.394;-6.294;2022-07-23T10:33:56;100440.01;;;26.25;12.20
64698;BME280;51124;53.394;-6.294;2022-07-23T10:36:09;100431.06;;;26.59;11.96
64698;BME280;51124;53.394;-6.294;2022-07-23T10:38:39;100432.34;;;26.43;12.20
64698;BME280;51124;53.394;-6.294;2022-07-23T10:41:06;100429.69;;;26.97;12.28
64698;BME280;51124;53.394;-6.294;2022-07-23T10:43:40;100428.63;;;26.35;12.43
64698;BME280;51124;53.394;-6.294;2022-07-23T10:46:24;100422.47;;;26.33;12.29
64698;BME280;51124;53.394;-6.294;2022-07-23T10:49:20;100419.95;;;25.65;12.73
64698;BME280;51124;53.394;-6.294;2022-07-23T10:51:15;100411.97;;;24.66;13.42
64698;BME280;51124;53.394;-6.294;2022-07-23T10:53:56;100409.86;;;25.19;12.58
64698;BME280;51124;53.394;-6.294;2022-07-23T10:56:14;100404.28;;;25.31;12.79
64698;BME280;51124;53.394;-6.294;2022-07-23T10:58:46;100402.99;;;25.63;12.32
64698;BME280;51124;53.394;-6.294;2022-07-23T11:01:31;100407.03;;;26.28;11.06
64698;BME280;51124;53.394;-6.294;2022-07-23T11:03:56;100404.45;;;26.05;11.15
64698;BME280;51124;53.394;-6.294;2022-07-23T11:06:20;100402.61;;;26.30;11.31
64698;BME280;51124;53.394;-6.294;2022-07-23T11:09:23;100402.47;;;25.98;11.62
64698;BME280;51124;53.394;-6.294;2022-07-23T11:11:27;100403.53;;;25.62;11.48
64698;BME280;51124;53.394;-6.294;2022-07-23T11:14:01;100405.79;;;25.45;11.62
64698;BME280;51124;53.394;-6.294;2022-07-23T11:16:46;100397.53;;;26.25;11.61
64698;BME280;51124;53.394;-6.294;2022-07-23T11:19:10;100397.35;;;25.97;11.63
64698;BME280;51124;53.394;-6.294;2022-07-23T11:21:47;100398.51;;;25.78;11.67
64698;BME280;51124;53.394;-6.294;2022-07-23T11:24:13;100385.76;;;26.11;11.88
64698;BME280;51124;53.394;-6.294;2022-07-23T11:26:47;100387.94;;;25.62;11.89
64698;BME280;51124;53.394;-6.294;2022-07-23T11:29:48;100383.89;;;25.54;12.00
64698;BME280;51124;53.394;-6.294;2022-07-23T11:31:51;100377.17;;;25.78;12.06
64698;BME280;51124;53.394;-6.294;2022-07-23T11:34:28;100372.65;;;25.47;12.02
64698;BME280;51124;53.394;-6.294;2022-07-23T11:36:48;100374.36;;;25.72;12.15
64698;BME280;51124;53.394;-6.294;2022-07-23T11:39:12;100374.14;;;26.11;12.10
64698;BME280;51124;53.394;-6.294;2022-07-23T11:41:47;100377.79;;;25.72;12.19
64698;BME280;51124;53.394;-6.294;2022-07-23T11:44:25;100378.40;;;25.88;12.06
64698;BME280;51124;53.394;-6.294;2022-07-23T11:46:54;100373.73;;;26.53;11.87
64698;BME280;51124;53.394;-6.294;2022-07-23T11:49:18;100370.13;;;26.34;11.96
64698;BME280;51124;53.394;-6.294;2022-07-23T11:52:03;100375.32;;;25.45;12.07
64698;BME280;51124;53.394;-6.294;2022-07-23T11:54:27;100368.85;;;25.41;12.00
64698;BME280;51124;53.394;-6.294;2022-07-23T11:57:03;100361.40;;;25.99;11.87
64698;BME280;51124;53.394;-6.294;2022-07-23T11:59:30;100360.86;;;26.06;11.96
64698;BME280;51124;53.394;-6.294;2022-07-23T12:01:56;100360.22;;;25.37;12.07
64698;BME280;51124;53.394;-6.294;2022-07-23T12:04:20;100361.64;;;25.80;11.94
64698;BME280;51124;53.394;-6.294;2022-07-23T12:06:54;100357.51;;;25.46;11.98
64698;BME280;51124;53.394;-6.294;2022-07-23T12:09:29;100359.41;;;25.59;11.92
64698;BME280;51124;53.394;-6.294;2022-07-23T12:12:04;100361.04;;;26.01;11.93
64698;BME280;51124;53.394;-6.294;2022-07-23T12:14:28;100360.66;;;26.01;11.88
64698;BME280;51124;53.394;-6.294;2022-07-23T12:17:09;100362.98;;;25.28;12.00
64698;BME280;51124;53.394;-6.294;2022-07-23T12:19:33;100367.34;;;25.77;11.96
64698;BME280;51124;53.394;-6.294;2022-07-23T12:22:07;100361.75;;;26.28;11.82
64698;BME280;51124;53.394;-6.294;2022-07-23T12:24:58;100368.20;;;26.11;11.84
64698;BME280;51124;53.394;-6.294;2022-07-23T12:27:12;100370.76;;;25.65;11.79
64698;BME280;51124;53.394;-6.294;2022-07-23T12:29:46;100366.75;;;26.05;11.82
64698;BME280;51124;53.394;-6.294;2022-07-23T12:32:22;100359.26;;;25.89;11.77
64698;BME280;51124;53.394;-6.294;2022-07-23T12:34:50;100359.07;;;26.07;11.80
64698;BME280;51124;53.394;-6.294;2022-07-23T12:37:32;100349.10;;;26.00;11.79
64698;BME280;51124;53.394;-6.294;2022-07-23T12:39:47;100355.72;;;26.62;11.52
64698;BME280;51124;53.394;-6.294;2022-07-23T12:42:21;100347.72;;;26.72;11.61
64698;BME280;51124;53.394;-6.294;2022-07-23T12:45:05;100348.16;;;26.25;11.62
64698;BME280;51124;53.394;-6.294;2022-07-23T12:47:29;100340.64;;;26.57;11.52
64698;BME280;51124;53.394;-6.294;2022-07-23T12:50:03;100338.06;;;26.30;11.61
64698;BME280;51124;53.394;-6.294;2022-07-23T12:52:37;100328.42;;;26.74;11.53
64698;BME280;51124;53.394;-6.294;2022-07-23T12:55:27;100334.59;;;26.80;11.50
64698;BME280;51124;53.394;-6.294;2022-07-23T12:57:47;100336.84;;;26.56;11.42
64698;BME280;51124;53.394;-6.294;2022-07-23T13:00:13;100335.42;;;26.45;11.32
64698;BME280;51124;53.394;-6.294;2022-07-23T13:02:45;100323.92;;;26.67;11.35
64698;BME280;51124;53.394;-6.294;2022-07-23T13:05:09;100320.90;;;27.58;11.27
64698;BME280;51124;53.394;-6.294;2022-07-23T13:07:43;100313.82;;;26.67;11.15
64698;BME280;51124;53.394;-6.294;2022-07-23T13:10:17;100314.10;;;27.13;11.22